Sacramento, CA (94249)

3:04 PM PDT on July 03, 2015 (GMT -0700)
37th between J and M | | Change Station
CLOSE
Current Station
Personal Weather Station
Location: Sacramento, CA
Elevation: 33 ft
Nearby Weather Stations

Elev 33 ft 38.57 °N, 121.46 °W | Updated 3 seconds ago

Clear
Clear
94.5 °F
Feels Like 95 °F
N
0.0
Wind Variable Wind from North
Gusts 0.0 mph

Today
High -- | Low -- °F
--% Chance of Precip.
Yesterday
High -- | Low -- °F
Precip. -- in
5:46 AM 8:33 PM
Waning Gibbous, 96% visible
Pressure 29.83 in
Visibility 10.0 miles
Clouds Clear
Heat Index 95 °F
Dew Point 62 °F
Humidity 34%
Rainfall 0.00 in
Snow Depth Not available.
UV 10 out of 12
Pollen 5.40 out of 12
Air Quality Not available.
Flu Activity Not available.
METAR KSAC 032153Z AUTO 28007KT 240V300 10SM CLR 34/14 A2983 RMK AO2 SLP100 T03440144 TSNO

More Conditions Fewer Conditions

Pressure 29.83 in
Visibility 10.0 miles
Clouds Clear
Heat Index 95 °F
Dew Point 62 °F
Humidity 34%
Rainfall 0.00 in
Snow Depth Not available.
UV 10 out of 12
Pollen 5.40 out of 12
Air Quality Not available.
Flu Activity Not available.
METAR KSAC 032153Z AUTO 28007KT 240V300 10SM CLR 34/14 A2983 RMK AO2 SLP100 T03440144 TSNO

More Conditions Fewer Conditions

10-Day Weather Forecast

×

Almanac

Astronomy

Jul. 03, 2015 Rise Set
Actual Time
Civil Twilight
Nautical Twilight
Astronomical Twilight
Moon
Length of Visible Light
Length of Day
Tomorrow will be .
, % of the Moon is Illuminated

Today's Extremes

State Highs State Lows

Community

WunderPhotos

Upload Photos

1,834,789 photos uploaded!

WunderBlogs® & News

Nearby

Air Quality

  Air Quality AQ Index Pollutant
Not available.

Snow Depth

Station Depth Elevation

Earthquake Activity

City Distance Mag. Time & Date
Minimum magnitude displayed is 2.5.

Coastal Water Temperatures

Place Temperature

Stations

Nearby Weather Stations

Station Location Temp. Windchill Dew Point Humidity Wind Precip. Elev Updated Type